sensor_id;sensor_type;location;lat;lon;timestamp;pressure;altitude;pressure_sealevel;temperature;humidity
50166;BME280;36071;48.140;11.516;2024-02-23T00:00:20;93640.0;;;8.3;83.2
50166;BME280;36071;48.140;11.516;2024-02-23T00:05:20;93650.0;;;8.2;82.9
50166;BME280;36071;48.140;11.516;2024-02-23T00:10:20;93640.0;;;8.1;83.4
50166;BME280;36071;48.140;11.516;2024-02-23T00:15:21;93650.0;;;8.1;82.8
50166;BME280;36071;48.140;11.516;2024-02-23T00:20:20;93660.0;;;8.1;82.2
50166;BME280;36071;48.140;11.516;2024-02-23T00:25:20;93660.0;;;8.0;80.5
50166;BME280;36071;48.140;11.516;2024-02-23T00:30:25;93660.0;;;8.0;79.4
50166;BME280;36071;48.140;11.516;2024-02-23T00:35:21;93670.0;;;7.9;79.2
50166;BME280;36071;48.140;11.516;2024-02-23T00:40:20;93670.0;;;7.9;79.5
50166;BME280;36071;48.140;11.516;2024-02-23T00:45:20;93670.0;;;7.9;78.4
50166;BME280;36071;48.140;11.516;2024-02-23T00:50:22;93680.0;;;7.9;79.0
50166;BME280;36071;48.140;11.516;2024-02-23T00:55:20;93680.0;;;7.9;79.2
50166;BME280;36071;48.140;11.516;2024-02-23T01:00:25;93680.0;;;7.9;79.5
50166;BME280;36071;48.140;11.516;2024-02-23T01:05:20;93690.0;;;7.8;77.5
50166;BME280;36071;48.140;11.516;2024-02-23T01:10:20;93700.0;;;7.8;77.7
50166;BME280;36071;48.140;11.516;2024-02-23T01:15:21;93700.0;;;7.8;77.6
50166;BME280;36071;48.140;11.516;2024-02-23T01:20:20;93710.0;;;7.9;78.5
50166;BME280;36071;48.140;11.516;2024-02-23T01:25:20;93720.0;;;7.8;77.9
50166;BME280;36071;48.140;11.516;2024-02-23T01:30:20;93720.0;;;7.8;76.9
50166;BME280;36071;48.140;11.516;2024-02-23T01:35:20;93720.0;;;7.8;75.8
50166;BME280;36071;48.140;11.516;2024-02-23T01:40:20;93730.0;;;7.8;75.4
50166;BME280;36071;48.140;11.516;2024-02-23T01:45:20;93720.0;;;7.7;75.4
50166;BME280;36071;48.140;11.516;2024-02-23T01:55:22;93710.0;;;7.6;74.8
50166;BME280;36071;48.140;11.516;2024-02-23T02:00:20;93720.0;;;7.5;75.0
50166;BME280;36071;48.140;11.516;2024-02-23T02:05:20;93730.0;;;7.5;75.1
50166;BME280;36071;48.140;11.516;2024-02-23T02:10:20;93740.0;;;7.4;76.1
50166;BME280;36071;48.140;11.516;2024-02-23T02:15:26;93750.0;;;7.4;76.4
50166;BME280;36071;48.140;11.516;2024-02-23T02:20:25;93740.0;;;7.4;76.4
50166;BME280;36071;48.140;11.516;2024-02-23T02:25:24;93760.0;;;7.4;76.7
50166;BME280;36071;48.140;11.516;2024-02-23T02:30:24;93760.0;;;7.3;75.5
50166;BME280;36071;48.140;11.516;2024-02-23T02:35:24;93750.0;;;7.3;75.6
50166;BME280;36071;48.140;11.516;2024-02-23T02:40:27;93760.0;;;7.3;75.4
50166;BME280;36071;48.140;11.516;2024-02-23T02:46:18;93770.0;;;7.3;74.9
50166;BME280;36071;48.140;11.516;2024-02-23T02:51:23;93770.0;;;7.3;75.4
50166;BME280;36071;48.140;11.516;2024-02-23T02:56:18;93770.0;;;7.2;75.5
50166;BME280;36071;48.140;11.516;2024-02-23T03:01:18;93770.0;;;7.2;76.3
50166;BME280;36071;48.140;11.516;2024-02-23T03:06:18;93770.0;;;7.2;75.7
50166;BME280;36071;48.140;11.516;2024-02-23T03:11:18;93770.0;;;7.2;74.7
50166;BME280;36071;48.140;11.516;2024-02-23T03:16:19;93780.0;;;7.2;73.8
50166;BME280;36071;48.140;11.516;2024-02-23T03:21:18;93780.0;;;7.2;74.4
50166;BME280;36071;48.140;11.516;2024-02-23T03:26:18;93790.0;;;7.1;73.3
50166;BME280;36071;48.140;11.516;2024-02-23T03:31:18;93780.0;;;7.1;73.1
50166;BME280;36071;48.140;11.516;2024-02-23T03:36:18;93770.0;;;7.1;73.9
50166;BME280;36071;48.140;11.516;2024-02-23T03:41:18;93780.0;;;7.1;73.7
50166;BME280;36071;48.140;11.516;2024-02-23T03:46:18;93790.0;;;7.1;73.7
50166;BME280;36071;48.140;11.516;2024-02-23T03:51:23;93790.0;;;7.1;74.9
50166;BME280;36071;48.140;11.516;2024-02-23T03:56:18;93790.0;;;7.0;76.4
50166;BME280;36071;48.140;11.516;2024-02-23T04:01:18;93800.0;;;6.8;77.3
50166;BME280;36071;48.140;11.516;2024-02-23T04:06:18;93790.0;;;6.9;77.5
50166;BME280;36071;48.140;11.516;2024-02-23T04:11:18;93790.0;;;6.9;77.2
50166;BME280;36071;48.140;11.516;2024-02-23T04:16:22;93800.0;;;6.9;77.3
50166;BME280;36071;48.140;11.516;2024-02-23T04:21:20;93800.0;;;6.9;77.2
50166;BME280;36071;48.140;11.516;2024-02-23T04:26:18;93790.0;;;6.8;76.6
50166;BME280;36071;48.140;11.516;2024-02-23T04:31:18;93800.0;;;6.7;74.4
50166;BME280;36071;48.140;11.516;2024-02-23T04:36:19;93810.0;;;6.7;74.3
50166;BME280;36071;48.140;11.516;2024-02-23T04:41:19;93800.0;;;6.6;74.5
50166;BME280;36071;48.140;11.516;2024-02-23T04:46:18;93800.0;;;6.6;75.0
50166;BME280;36071;48.140;11.516;2024-02-23T04:51:18;93800.0;;;6.6;75.9
50166;BME280;36071;48.140;11.516;2024-02-23T04:56:19;93820.0;;;6.5;76.7
50166;BME280;36071;48.140;11.516;2024-02-23T05:01:18;93800.0;;;6.5;78.9
50166;BME280;36071;48.140;11.516;2024-02-23T05:06:18;93770.0;;;6.3;80.6
50166;BME280;36071;48.140;11.516;2024-02-23T05:11:18;93780.0;;;6.1;82.8
50166;BME280;36071;48.140;11.516;2024-02-23T05:16:18;93780.0;;;6.1;83.8
50166;BME280;36071;48.140;11.516;2024-02-23T05:21:18;93800.0;;;6.1;84.5
50166;BME280;36071;48.140;11.516;2024-02-23T05:26:18;93790.0;;;6.1;85.2
50166;BME280;36071;48.140;11.516;2024-02-23T05:31:18;93800.0;;;6.1;85.3
50166;BME280;36071;48.140;11.516;2024-02-23T05:36:19;93800.0;;;6.1;85.8
50166;BME280;36071;48.140;11.516;2024-02-23T05:41:18;93800.0;;;6.1;86.0
50166;BME280;36071;48.140;11.516;2024-02-23T05:46:18;93800.0;;;6.1;86.3
50166;BME280;36071;48.140;11.516;2024-02-23T05:51:18;93810.0;;;6.1;86.6
50166;BME280;36071;48.140;11.516;2024-02-23T05:56:18;93810.0;;;6.2;86.1
50166;BME280;36071;48.140;11.516;2024-02-23T06:01:18;93830.0;;;6.2;86.2
50166;BME280;36071;48.140;11.516;2024-02-23T06:06:20;93840.0;;;6.2;86.9
50166;BME280;36071;48.140;11.516;2024-02-23T06:11:18;93840.0;;;6.2;84.5
50166;BME280;36071;48.140;11.516;2024-02-23T06:16:18;93850.0;;;6.1;83.3
50166;BME280;36071;48.140;11.516;2024-02-23T06:21:21;93850.0;;;6.1;82.3
50166;BME280;36071;48.140;11.516;2024-02-23T06:26:21;93860.0;;;6.1;81.0
50166;BME280;36071;48.140;11.516;2024-02-23T06:31:18;93860.0;;;6.1;80.6
50166;BME280;36071;48.140;11.516;2024-02-23T06:36:18;93870.0;;;6.0;79.1
50166;BME280;36071;48.140;11.516;2024-02-23T06:41:18;93870.0;;;6.1;79.1
50166;BME280;36071;48.140;11.516;2024-02-23T06:46:18;93860.0;;;6.1;78.4
50166;BME280;36071;48.140;11.516;2024-02-23T06:51:21;93850.0;;;6.1;77.7
50166;BME280;36071;48.140;11.516;2024-02-23T06:56:18;93850.0;;;6.1;77.1
50166;BME280;36071;48.140;11.516;2024-02-23T07:01:19;93860.0;;;6.1;76.4
50166;BME280;36071;48.140;11.516;2024-02-23T07:06:18;93880.0;;;6.2;75.0
50166;BME280;36071;48.140;11.516;2024-02-23T07:11:18;93870.0;;;6.2;74.6
50166;BME280;36071;48.140;11.516;2024-02-23T07:16:18;93880.0;;;6.1;75.0
50166;BME280;36071;48.140;11.516;2024-02-23T07:21:18;93890.0;;;6.1;75.8
50166;BME280;36071;48.140;11.516;2024-02-23T07:26:18;93890.0;;;6.1;75.7
50166;BME280;36071;48.140;11.516;2024-02-23T07:31:18;93910.0;;;6.1;75.5
50166;BME280;36071;48.140;11.516;2024-02-23T07:36:20;93910.0;;;6.1;75.9
50166;BME280;36071;48.140;11.516;2024-02-23T07:41:18;93900.0;;;6.0;75.0
50166;BME280;36071;48.140;11.516;2024-02-23T07:46:18;93910.0;;;6.1;75.7
50166;BME280;36071;48.140;11.516;2024-02-23T07:51:23;93900.0;;;6.1;75.1
50166;BME280;36071;48.140;11.516;2024-02-23T08:01:18;93900.0;;;6.1;74.9
50166;BME280;36071;48.140;11.516;2024-02-23T08:06:18;93880.0;;;6.2;73.5
50166;BME280;36071;48.140;11.516;2024-02-23T08:11:21;93870.0;;;6.3;72.5
50166;BME280;36071;48.140;11.516;2024-02-23T08:16:18;93870.0;;;6.3;72.3
50166;BME280;36071;48.140;11.516;2024-02-23T08:21:18;93890.0;;;6.4;71.4
50166;BME280;36071;48.140;11.516;2024-02-23T08:26:18;93860.0;;;6.4;71.2
50166;BME280;36071;48.140;11.516;2024-02-23T08:36:18;93860.0;;;6.5;70.4
50166;BME280;36071;48.140;11.516;2024-02-23T08:41:18;93870.0;;;6.6;68.9
50166;BME280;36071;48.140;11.516;2024-02-23T08:46:21;93880.0;;;6.6;68.5
50166;BME280;36071;48.140;11.516;2024-02-23T08:51:18;93880.0;;;6.5;68.2
50166;BME280;36071;48.140;11.516;2024-02-23T08:56:18;93910.0;;;6.4;69.7
50166;BME280;36071;48.140;11.516;2024-02-23T09:01:19;93920.0;;;6.3;69.4
50166;BME280;36071;48.140;11.516;2024-02-23T09:06:19;93930.0;;;6.3;69.9
50166;BME280;36071;48.140;11.516;2024-02-23T09:11:19;93930.0;;;6.3;69.3
50166;BME280;36071;48.140;11.516;2024-02-23T09:16:22;93950.0;;;6.3;69.8
50166;BME280;36071;48.140;11.516;2024-02-23T09:21:19;93950.0;;;6.2;70.2
50166;BME280;36071;48.140;11.516;2024-02-23T09:26:19;93950.0;;;6.3;69.2
50166;BME280;36071;48.140;11.516;2024-02-23T09:31:19;93950.0;;;6.3;69.4
50166;BME280;36071;48.140;11.516;2024-02-23T09:36:21;93950.0;;;6.3;68.8
50166;BME280;36071;48.140;11.516;2024-02-23T09:41:19;93950.0;;;6.3;68.5
50166;BME280;36071;48.140;11.516;2024-02-23T09:46:19;93960.0;;;6.3;70.0
50166;BME280;36071;48.140;11.516;2024-02-23T09:56:20;93940.0;;;6.3;69.7
50166;BME280;36071;48.140;11.516;2024-02-23T10:01:21;93940.0;;;6.3;70.0
50166;BME280;36071;48.140;11.516;2024-02-23T10:06:19;93960.0;;;6.3;69.1
50166;BME280;36071;48.140;11.516;2024-02-23T10:11:19;93950.0;;;6.3;68.4
50166;BME280;36071;48.140;11.516;2024-02-23T10:16:21;93950.0;;;6.4;68.6
50166;BME280;36071;48.140;11.516;2024-02-23T10:21:21;93950.0;;;6.4;67.0
50166;BME280;36071;48.140;11.516;2024-02-23T10:26:19;93930.0;;;6.5;65.9
50166;BME280;36071;48.140;11.516;2024-02-23T10:31:19;93910.0;;;6.3;64.2
50166;BME280;36071;48.140;11.516;2024-02-23T10:36:19;93930.0;;;6.3;65.7
50166;BME280;36071;48.140;11.516;2024-02-23T10:41:23;93930.0;;;6.5;65.4
50166;BME280;36071;48.140;11.516;2024-02-23T10:46:19;93940.0;;;6.5;65.2
50166;BME280;36071;48.140;11.516;2024-02-23T10:51:19;93940.0;;;6.6;62.4
50166;BME280;36071;48.140;11.516;2024-02-23T10:56:19;93940.0;;;6.6;63.6
50166;BME280;36071;48.140;11.516;2024-02-23T11:01:24;93940.0;;;6.6;65.0
50166;BME280;36071;48.140;11.516;2024-02-23T11:06:23;93940.0;;;6.7;65.5
50166;BME280;36071;48.140;11.516;2024-02-23T11:11:20;93950.0;;;6.6;65.7
50166;BME280;36071;48.140;11.516;2024-02-23T11:16:21;93930.0;;;6.5;66.4
50166;BME280;36071;48.140;11.516;2024-02-23T11:21:25;93940.0;;;6.5;66.7
50166;BME280;36071;48.140;11.516;2024-02-23T11:26:23;93940.0;;;6.5;65.6
50166;BME280;36071;48.140;11.516;2024-02-23T11:31:21;93950.0;;;6.3;65.2
50166;BME280;36071;48.140;11.516;2024-02-23T11:36:22;93950.0;;;6.4;65.8
50166;BME280;36071;48.140;11.516;2024-02-23T11:41:21;93940.0;;;6.4;65.1
50166;BME280;36071;48.140;11.516;2024-02-23T11:46:20;93940.0;;;6.4;65.6
50166;BME280;36071;48.140;11.516;2024-02-23T11:51:21;93940.0;;;6.2;65.4
50166;BME280;36071;48.140;11.516;2024-02-23T11:56:20;93940.0;;;6.3;65.6
50166;BME280;36071;48.140;11.516;2024-02-23T12:01:20;93930.0;;;6.3;64.6
50166;BME280;36071;48.140;11.516;2024-02-23T12:06:20;93930.0;;;6.2;64.3
50166;BME280;36071;48.140;11.516;2024-02-23T12:11:20;93930.0;;;6.2;64.9
50166;BME280;36071;48.140;11.516;2024-02-23T12:16:21;93930.0;;;6.0;64.1
50166;BME280;36071;48.140;11.516;2024-02-23T12:21:20;93940.0;;;5.9;64.8
50166;BME280;36071;48.140;11.516;2024-02-23T12:26:20;93920.0;;;5.9;64.9
50166;BME280;36071;48.140;11.516;2024-02-23T12:31:23;93910.0;;;6.0;64.9
50166;BME280;36071;48.140;11.516;2024-02-23T12:36:20;93900.0;;;5.8;65.4
50166;BME280;36071;48.140;11.516;2024-02-23T12:41:20;93900.0;;;5.9;64.6
50166;BME280;36071;48.140;11.516;2024-02-23T12:46:22;93910.0;;;5.9;64.2
50166;BME280;36071;48.140;11.516;2024-02-23T12:51:24;93920.0;;;6.1;63.6
50166;BME280;36071;48.140;11.516;2024-02-23T12:56:20;93910.0;;;6.0;62.1
50166;BME280;36071;48.140;11.516;2024-02-23T13:01:20;93890.0;;;6.0;62.9
50166;BME280;36071;48.140;11.516;2024-02-23T13:06:20;93880.0;;;6.0;62.5
50166;BME280;36071;48.140;11.516;2024-02-23T13:11:23;93900.0;;;6.0;62.3
50166;BME280;36071;48.140;11.516;2024-02-23T13:16:20;93890.0;;;5.9;61.9
50166;BME280;36071;48.140;11.516;2024-02-23T13:21:20;93920.0;;;5.8;61.8
50166;BME280;36071;48.140;11.516;2024-02-23T13:26:20;93940.0;;;5.7;61.2
50166;BME280;36071;48.140;11.516;2024-02-23T13:31:20;93930.0;;;5.7;61.7
50166;BME280;36071;48.140;11.516;2024-02-23T13:36:20;93930.0;;;5.8;61.8
50166;BME280;36071;48.140;11.516;2024-02-23T13:41:20;93910.0;;;5.8;62.0
50166;BME280;36071;48.140;11.516;2024-02-23T13:46:20;93880.0;;;5.7;61.3
50166;BME280;36071;48.140;11.516;2024-02-23T13:51:20;93880.0;;;5.6;62.2
50166;BME280;36071;48.140;11.516;2024-02-23T13:56:23;93900.0;;;5.4;62.5
50166;BME280;36071;48.140;11.516;2024-02-23T14:01:20;93870.0;;;5.5;62.8
50166;BME280;36071;48.140;11.516;2024-02-23T14:06:20;93850.0;;;5.3;62.7
50166;BME280;36071;48.140;11.516;2024-02-23T14:11:20;93870.0;;;5.5;63.2
50166;BME280;36071;48.140;11.516;2024-02-23T14:16:20;93870.0;;;5.5;62.3
50166;BME280;36071;48.140;11.516;2024-02-23T14:21:20;93840.0;;;5.4;62.4
50166;BME280;36071;48.140;11.516;2024-02-23T14:26:21;93870.0;;;5.3;62.0
50166;BME280;36071;48.140;11.516;2024-02-23T14:31:21;93870.0;;;5.3;62.3
50166;BME280;36071;48.140;11.516;2024-02-23T14:36:21;93880.0;;;5.3;63.5
50166;BME280;36071;48.140;11.516;2024-02-23T14:41:21;93890.0;;;5.3;63.2
50166;BME280;36071;48.140;11.516;2024-02-23T14:46:24;93890.0;;;5.3;63.6
50166;BME280;36071;48.140;11.516;2024-02-23T14:51:21;93900.0;;;5.3;64.1
50166;BME280;36071;48.140;11.516;2024-02-23T14:56:21;93860.0;;;5.2;64.3
50166;BME280;36071;48.140;11.516;2024-02-23T15:01:21;93850.0;;;5.0;65.0
50166;BME280;36071;48.140;11.516;2024-02-23T15:06:22;93840.0;;;5.1;64.3
50166;BME280;36071;48.140;11.516;2024-02-23T15:11:24;93830.0;;;5.0;64.3
50166;BME280;36071;48.140;11.516;2024-02-23T15:16:23;93810.0;;;5.1;63.7
50166;BME280;36071;48.140;11.516;2024-02-23T15:21:25;93860.0;;;5.1;63.1
50166;BME280;36071;48.140;11.516;2024-02-23T15:26:22;93880.0;;;5.0;64.4
50166;BME280;36071;48.140;11.516;2024-02-23T15:31:22;93870.0;;;5.0;64.1
50166;BME280;36071;48.140;11.516;2024-02-23T15:36:24;93830.0;;;5.0;64.0
50166;BME280;36071;48.140;11.516;2024-02-23T15:41:22;93840.0;;;4.9;63.9
50166;BME280;36071;48.140;11.516;2024-02-23T15:46:22;93840.0;;;4.9;64.5
50166;BME280;36071;48.140;11.516;2024-02-23T15:51:23;93860.0;;;4.9;64.8
50166;BME280;36071;48.140;11.516;2024-02-23T15:56:22;93870.0;;;4.9;64.2
50166;BME280;36071;48.140;11.516;2024-02-23T16:01:22;93880.0;;;4.7;65.4
50166;BME280;36071;48.140;11.516;2024-02-23T16:06:23;93860.0;;;4.6;66.0
50166;BME280;36071;48.140;11.516;2024-02-23T16:11:24;93830.0;;;4.7;66.5
50166;BME280;36071;48.140;11.516;2024-02-23T16:16:22;93860.0;;;4.8;66.7
50166;BME280;36071;48.140;11.516;2024-02-23T16:21:22;93850.0;;;4.8;66.3
50166;BME280;36071;48.140;11.516;2024-02-23T16:26:22;93830.0;;;4.5;66.2
50166;BME280;36071;48.140;11.516;2024-02-23T16:31:24;93850.0;;;4.4;66.7
50166;BME280;36071;48.140;11.516;2024-02-23T16:36:22;93870.0;;;4.3;67.1
50166;BME280;36071;48.140;11.516;2024-02-23T16:41:22;93850.0;;;4.3;68.0
50166;BME280;36071;48.140;11.516;2024-02-23T16:46:24;93850.0;;;4.4;67.5
50166;BME280;36071;48.140;11.516;2024-02-23T16:51:28;93850.0;;;4.3;67.0
50166;BME280;36071;48.140;11.516;2024-02-23T16:56:22;93830.0;;;4.2;66.9
50166;BME280;36071;48.140;11.516;2024-02-23T17:01:26;93830.0;;;4.2;67.4
50166;BME280;36071;48.140;11.516;2024-02-23T17:06:22;93840.0;;;4.4;67.0
50166;BME280;36071;48.140;11.516;2024-02-23T17:11:25;93870.0;;;4.3;67.5
50166;BME280;36071;48.140;11.516;2024-02-23T17:16:22;93900.0;;;4.2;68.2
50166;BME280;36071;48.140;11.516;2024-02-23T17:21:27;93910.0;;;4.0;69.5
50166;BME280;36071;48.140;11.516;2024-02-23T17:26:23;93890.0;;;3.9;70.5
50166;BME280;36071;48.140;11.516;2024-02-23T17:31:22;93850.0;;;3.9;70.8
50166;BME280;36071;48.140;11.516;2024-02-23T17:36:22;93830.0;;;3.9;71.2
50166;BME280;36071;48.140;11.516;2024-02-23T17:41:22;93820.0;;;3.9;71.8
50166;BME280;36071;48.140;11.516;2024-02-23T17:46:22;93860.0;;;3.8;72.4
50166;BME280;36071;48.140;11.516;2024-02-23T17:51:22;93880.0;;;3.8;72.8
50166;BME280;36071;48.140;11.516;2024-02-23T17:56:22;93880.0;;;3.7;74.0
50166;BME280;36071;48.140;11.516;2024-02-23T18:01:27;93890.0;;;3.9;74.3
50166;BME280;36071;48.140;11.516;2024-02-23T18:06:22;93880.0;;;3.9;74.1
50166;BME280;36071;48.140;11.516;2024-02-23T18:11:22;93870.0;;;3.8;75.3
50166;BME280;36071;48.140;11.516;2024-02-23T18:16:22;93860.0;;;3.9;75.4
50166;BME280;36071;48.140;11.516;2024-02-23T18:21:24;93850.0;;;3.8;75.4
50166;BME280;36071;48.140;11.516;2024-02-23T18:26:22;93860.0;;;3.8;75.8
50166;BME280;36071;48.140;11.516;2024-02-23T18:31:22;93840.0;;;3.8;76.0
50166;BME280;36071;48.140;11.516;2024-02-23T18:36:22;93830.0;;;3.8;76.3
50166;BME280;36071;48.140;11.516;2024-02-23T18:41:22;93810.0;;;3.9;76.2
50166;BME280;36071;48.140;11.516;2024-02-23T18:46:22;93850.0;;;3.8;76.8
50166;BME280;36071;48.140;11.516;2024-02-23T18:51:22;93850.0;;;3.8;77.0
50166;BME280;36071;48.140;11.516;2024-02-23T18:56:23;93840.0;;;3.8;77.2
50166;BME280;36071;48.140;11.516;2024-02-23T19:01:22;93850.0;;;3.7;78.4
50166;BME280;36071;48.140;11.516;2024-02-23T19:06:22;93830.0;;;3.7;78.3
50166;BME280;36071;48.140;11.516;2024-02-23T19:11:23;93810.0;;;3.8;78.0
50166;BME280;36071;48.140;11.516;2024-02-23T19:16:22;93830.0;;;3.7;78.8
50166;BME280;36071;48.140;11.516;2024-02-23T19:21:24;93830.0;;;3.7;79.5
50166;BME280;36071;48.140;11.516;2024-02-23T19:26:22;93840.0;;;3.6;80.0
50166;BME280;36071;48.140;11.516;2024-02-23T19:31:22;93840.0;;;3.5;80.5
50166;BME280;36071;48.140;11.516;2024-02-23T19:36:22;93850.0;;;3.4;81.3
50166;BME280;36071;48.140;11.516;2024-02-23T19:41:22;93850.0;;;3.5;81.5
50166;BME280;36071;48.140;11.516;2024-02-23T19:46:22;93840.0;;;3.4;82.4
50166;BME280;36071;48.140;11.516;2024-02-23T19:51:23;93840.0;;;3.5;82.4
50166;BME280;36071;48.140;11.516;2024-02-23T19:56:22;93830.0;;;3.4;81.9
50166;BME280;36071;48.140;11.516;2024-02-23T20:01:22;93830.0;;;3.4;82.0
50166;BME280;36071;48.140;11.516;2024-02-23T20:06:22;93830.0;;;3.3;82.5
50166;BME280;36071;48.140;11.516;2024-02-23T20:11:22;93820.0;;;3.5;82.3
50166;BME280;36071;48.140;11.516;2024-02-23T20:16:22;93790.0;;;3.6;82.7
50166;BME280;36071;48.140;11.516;2024-02-23T20:21:22;93780.0;;;3.6;80.9
50166;BME280;36071;48.140;11.516;2024-02-23T20:26:22;93780.0;;;3.5;81.2
50166;BME280;36071;48.140;11.516;2024-02-23T20:31:25;93790.0;;;3.6;81.5
50166;BME280;36071;48.140;11.516;2024-02-23T20:36:22;93790.0;;;3.6;81.1
50166;BME280;36071;48.140;11.516;2024-02-23T20:41:22;93790.0;;;3.7;81.3
50166;BME280;36071;48.140;11.516;2024-02-23T20:46:25;93800.0;;;3.6;80.9
50166;BME280;36071;48.140;11.516;2024-02-23T20:51:22;93800.0;;;3.5;81.5
50166;BME280;36071;48.140;11.516;2024-02-23T20:56:22;93780.0;;;3.5;81.6
50166;BME280;36071;48.140;11.516;2024-02-23T21:01:22;93800.0;;;3.5;82.3
50166;BME280;36071;48.140;11.516;2024-02-23T21:06:22;93800.0;;;3.5;82.4
50166;BME280;36071;48.140;11.516;2024-02-23T21:11:23;93810.0;;;3.5;82.3
50166;BME280;36071;48.140;11.516;2024-02-23T21:16:22;93810.0;;;3.5;82.2
50166;BME280;36071;48.140;11.516;2024-02-23T21:21:22;93830.0;;;3.3;83.2
50166;BME280;36071;48.140;11.516;2024-02-23T21:26:22;93820.0;;;3.4;83.2
50166;BME280;36071;48.140;11.516;2024-02-23T21:31:22;93810.0;;;3.4;82.8
50166;BME280;36071;48.140;11.516;2024-02-23T21:36:24;93810.0;;;3.4;82.5
50166;BME280;36071;48.140;11.516;2024-02-23T21:41:22;93810.0;;;3.4;83.0
50166;BME280;36071;48.140;11.516;2024-02-23T21:46:22;93810.0;;;3.3;82.8
50166;BME280;36071;48.140;11.516;2024-02-23T21:51:24;93820.0;;;3.3;82.6
50166;BME280;36071;48.140;11.516;2024-02-23T21:56:22;93810.0;;;3.3;82.4
50166;BME280;36071;48.140;11.516;2024-02-23T22:01:22;93800.0;;;3.3;83.1
50166;BME280;36071;48.140;11.516;2024-02-23T22:06:27;93800.0;;;3.4;81.9
50166;BME280;36071;48.140;11.516;2024-02-23T22:11:22;93800.0;;;3.2;82.4
50166;BME280;36071;48.140;11.516;2024-02-23T22:16:22;93800.0;;;3.2;82.3
50166;BME280;36071;48.140;11.516;2024-02-23T22:21:24;93800.0;;;3.2;82.4
50166;BME280;36071;48.140;11.516;2024-02-23T22:36:22;93800.0;;;3.2;81.9
50166;BME280;36071;48.140;11.516;2024-02-23T22:41:22;93790.0;;;3.2;81.8
50166;BME280;36071;48.140;11.516;2024-02-23T22:46:26;93810.0;;;3.3;80.9
50166;BME280;36071;48.140;11.516;2024-02-23T22:51:22;93800.0;;;3.3;80.7
50166;BME280;36071;48.140;11.516;2024-02-23T22:56:22;93800.0;;;3.3;80.4
50166;BME280;36071;48.140;11.516;2024-02-23T23:01:23;93800.0;;;3.3;80.9
50166;BME280;36071;48.140;11.516;2024-02-23T23:06:22;93800.0;;;3.2;81.0
50166;BME280;36071;48.140;11.516;2024-02-23T23:11:22;93820.0;;;3.3;80.9
50166;BME280;36071;48.140;11.516;2024-02-23T23:16:27;93820.0;;;3.2;81.3
50166;BME280;36071;48.140;11.516;2024-02-23T23:21:22;93830.0;;;3.3;80.8
50166;BME280;36071;48.140;11.516;2024-02-23T23:26:22;93820.0;;;3.3;81.0
50166;BME280;36071;48.140;11.516;2024-02-23T23:31:22;93830.0;;;3.2;81.1
50166;BME280;36071;48.140;11.516;2024-02-23T23:36:22;93840.0;;;3.0;82.2
50166;BME280;36071;48.140;11.516;2024-02-23T23:41:22;93830.0;;;3.1;81.7
50166;BME280;36071;48.140;11.516;2024-02-23T23:46:22;93840.0;;;3.1;82.2
50166;BME280;36071;48.140;11.516;2024-02-23T23:51:22;93840.0;;;3.2;81.8
50166;BME280;36071;48.140;11.516;2024-02-23T23:56:22;93840.0;;;3.1;81.5
